Time;durP1;ratioP1;P1;durP2;ratioP2;P2;SDS_P1;SDS_P2;PMS_P1;PMS_P2;Temp;Humidity;BMP_temperature;BMP_pressure;BME280_temperature;BME280_humidity;BME280_pressure;Samples;Min_cycle;Max_cycle;Signal;HPM_P1;HPM_P2
2022/04/07 00:01:42;;;;;;;2.88;0.10;;;22.30;41.80;;;;;;5088005;28;20048;-62
2022/04/07 00:04:09;;;;;;;2.05;0.10;;;22.30;41.80;;;;;;5079399;28;20035;-63
2022/04/07 00:06:37;;;;;;;2.58;0.10;;;22.30;41.70;;;;;;5100289;28;20051;-62
2022/04/07 00:09:04;;;;;;;10.15;0.20;;;22.40;41.80;;;;;;5098041;28;20036;-62
2022/04/07 00:11:33;;;;;;;1.27;0.10;;;22.30;41.70;;;;;;5101840;28;20112;-62
2022/04/07 00:14:00;;;;;;;3.10;0.10;;;22.30;41.70;;;;;;5101849;28;20192;-62
2022/04/07 00:16:28;;;;;;;3.83;0.00;;;22.30;41.80;;;;;;5099075;28;20040;-63
2022/04/07 00:18:55;;;;;;;1.27;0.10;;;22.30;41.80;;;;;;5091787;28;20040;-63
2022/04/07 00:21:35;;;;;;;4.82;0.10;;;22.30;41.70;;;;;;5096033;28;20051;-63
2022/04/07 00:24:04;;;;;;;1.55;0.10;;;22.30;41.80;;;;;;5095162;28;20127;-62
2022/04/07 00:26:31;;;;;;;1.05;0.10;;;22.30;41.70;;;;;;5093629;28;20039;-63
2022/04/07 00:28:59;;;;;;;2.50;0.85;;;22.30;41.70;;;;;;5088863;28;20079;-63
2022/04/07 00:31:27;;;;;;;2.28;0.60;;;22.30;41.70;;;;;;5097542;28;20512;-63
2022/04/07 00:33:54;;;;;;;0.52;0.10;;;22.30;41.70;;;;;;5100708;28;20067;-63
2022/04/07 00:36:21;;;;;;;0.68;0.00;;;22.20;41.60;;;;;;5092863;28;20032;-63
2022/04/07 00:38:48;;;;;;;2.05;0.10;;;22.20;41.60;;;;;;5088085;28;20092;-63
2022/04/07 00:41:15;;;;;;;2.47;1.17;;;22.20;41.60;;;;;;5099179;28;20050;-62
2022/04/07 00:43:49;;;;;;;0.20;0.05;;;22.20;41.50;;;;;;5107483;28;20044;-63
2022/04/07 00:46:18;;;;;;;1.67;0.10;;;22.20;41.60;;;;;;5097196;28;20106;-63
2022/04/07 00:48:46;;;;;;;2.05;0.30;;;22.20;41.60;;;;;;5098322;28;20039;-63
2022/04/07 00:51:14;;;;;;;0.22;0.22;;;22.20;41.50;;;;;;5092056;28;20121;-63
2022/04/07 00:53:41;;;;;;;0.40;0.10;;;22.20;41.50;;;;;;5093867;28;20504;-63
2022/04/07 00:56:09;;;;;;;0.25;0.20;;;22.20;41.50;;;;;;5094057;28;20044;-63
2022/04/07 00:58:36;;;;;;;1.58;0.00;;;22.20;41.50;;;;;;5093352;28;20040;-63
2022/04/07 01:01:04;;;;;;;2.90;0.20;;;22.20;41.50;;;;;;5091593;28;20056;-62
2022/04/07 01:03:32;;;;;;;1.15;0.55;;;22.20;41.50;;;;;;5094746;28;20040;-63
2022/04/07 01:06:00;;;;;;;4.82;0.20;;;22.20;41.50;;;;;;5093020;28;20127;-64
2022/04/07 01:08:27;;;;;;;0.57;0.10;;;22.20;41.50;;;;;;5092066;28;20046;-64
2022/04/07 01:10:54;;;;;;;1.45;0.10;;;22.20;41.50;;;;;;5096457;28;20054;-63
2022/04/07 01:13:22;;;;;;;3.78;0.10;;;22.20;41.80;;;;;;5096684;28;20054;-63
2022/04/07 01:15:49;;;;;;;1.63;0.05;;;22.20;41.70;;;;;;5096468;28;20056;-63
2022/04/07 01:18:16;;;;;;;2.10;0.77;;;22.20;41.70;;;;;;5090728;28;20043;-64
2022/04/07 01:20:44;;;;;;;0.70;0.10;;;22.20;41.60;;;;;;5088747;28;20119;-64
2022/04/07 01:23:11;;;;;;;1.23;0.00;;;22.20;41.60;;;;;;5090667;28;20531;-63
2022/04/07 01:25:40;;;;;;;1.67;0.08;;;22.20;41.70;;;;;;5098998;28;20055;-64
2022/04/07 01:28:08;;;;;;;1.58;0.20;;;22.20;41.70;;;;;;5091785;28;20064;-61
2022/04/07 01:30:35;;;;;;;2.65;0.55;;;22.20;41.70;;;;;;5095332;28;20056;-63
2022/04/07 01:33:03;;;;;;;0.52;0.50;;;22.20;41.70;;;;;;5091592;28;20047;-63
2022/04/07 01:35:32;;;;;;;1.35;0.10;;;22.20;41.80;;;;;;5089305;28;20063;-62
2022/04/07 01:38:01;;;;;;;0.43;0.05;;;22.20;41.80;;;;;;5089833;28;20621;-63
2022/04/07 01:40:35;;;;;;;0.45;0.10;;;22.20;41.80;;;;;;5103057;28;20116;-63
2022/04/07 01:43:06;;;;;;;4.65;0.20;;;22.20;41.90;;;;;;5090731;28;20127;-63
2022/04/07 01:45:34;;;;;;;1.85;0.57;;;22.20;41.90;;;;;;5095851;27;20105;-63
2022/04/07 01:48:03;;;;;;;2.33;0.10;;;22.20;42.00;;;;;;5092977;28;20500;-63
2022/04/07 01:50:32;;;;;;;1.15;0.30;;;22.20;41.90;;;;;;5091210;28;20077;-63
2022/04/07 01:53:01;;;;;;;1.52;0.10;;;22.10;41.90;;;;;;5073326;28;20991;-63
2022/04/07 01:55:29;;;;;;;0.88;0.65;;;22.10;42.50;;;;;;5099855;28;20044;-64
2022/04/07 01:57:57;;;;;;;5.85;0.10;;;22.10;42.00;;;;;;5094534;28;20487;-63
2022/04/07 02:00:25;;;;;;;1.65;0.20;;;22.10;42.20;;;;;;5095938;28;20046;-64
2022/04/07 02:02:52;;;;;;;1.00;0.10;;;22.10;42.20;;;;;;5101118;28;20582;-63
2022/04/07 02:05:19;;;;;;;2.08;0.10;;;22.20;42.30;;;;;;5073018;28;20064;-63
2022/04/07 02:07:50;;;;;;;1.20;0.05;;;22.10;42.30;;;;;;5094496;28;20085;-63
2022/04/07 02:10:18;;;;;;;2.05;0.10;;;22.10;42.40;;;;;;5091228;28;20549;-62
2022/04/07 02:12:46;;;;;;;1.65;0.10;;;22.10;42.50;;;;;;5094316;28;20055;-64
2022/04/07 02:15:13;;;;;;;0.75;0.10;;;22.10;42.60;;;;;;5094187;28;20050;-62
2022/04/07 02:17:42;;;;;;;0.30;0.00;;;22.10;42.60;;;;;;5092017;28;20032;-62
2022/04/07 02:20:10;;;;;;;1.23;0.40;;;22.10;42.70;;;;;;5085712;28;20044;-63
2022/04/07 02:22:37;;;;;;;0.60;0.10;;;22.10;42.80;;;;;;5092018;28;20036;-62
2022/04/07 02:25:08;;;;;;;0.98;0.10;;;22.10;42.90;;;;;;5090802;28;20039;-63
2022/04/07 02:27:36;;;;;;;1.10;0.10;;;22.10;43.00;;;;;;5092306;28;20044;-61
2022/04/07 02:30:05;;;;;;;2.47;0.25;;;22.10;43.10;;;;;;5092850;28;20572;-62
2022/04/07 02:32:33;;;;;;;0.70;0.10;;;22.10;43.20;;;;;;5089828;28;20117;-62
2022/04/07 02:35:01;;;;;;;4.47;0.10;;;22.10;43.20;;;;;;5086848;28;20930;-63
2022/04/07 02:37:29;;;;;;;2.50;0.20;;;22.10;43.30;;;;;;5094583;28;20507;-65
2022/04/07 02:39:56;;;;;;;1.85;0.20;;;22.10;43.20;;;;;;5095275;28;20050;-62
2022/04/07 02:42:23;;;;;;;1.38;0.00;;;22.10;43.30;;;;;;5094405;28;20528;-62
2022/04/07 02:44:51;;;;;;;0.52;0.10;;;22.10;43.40;;;;;;5098078;28;20043;-62
2022/04/07 02:47:18;;;;;;;0.17;0.10;;;22.10;43.50;;;;;;5088521;28;20427;-62
2022/04/07 02:49:47;;;;;;;0.40;0.40;;;22.10;43.50;;;;;;5094289;28;20068;-62
2022/04/07 02:52:15;;;;;;;2.75;0.05;;;22.10;43.60;;;;;;5093112;28;20039;-62
2022/04/07 02:54:42;;;;;;;0.38;0.28;;;22.10;43.70;;;;;;5095781;28;20130;-62
2022/04/07 02:57:09;;;;;;;0.95;0.17;;;22.10;43.70;;;;;;5095279;28;20118;-62
2022/04/07 02:59:36;;;;;;;1.52;0.03;;;22.10;43.80;;;;;;5075469;28;20036;-63
2022/04/07 03:02:04;;;;;;;2.67;0.08;;;22.10;43.90;;;;;;5085991;28;20051;-63
2022/04/07 03:04:31;;;;;;;2.30;0.10;;;22.00;44.00;;;;;;5095756;28;20059;-63
2022/04/07 03:06:58;;;;;;;2.30;0.10;;;22.00;43.90;;;;;;5098639;28;20048;-64
2022/04/07 03:09:27;;;;;;;0.68;0.20;;;22.10;44.00;;;;;;5089083;28;20818;-64
2022/04/07 03:11:54;;;;;;;1.13;0.10;;;22.00;43.90;;;;;;5097870;28;20039;-64
2022/04/07 03:14:22;;;;;;;2.90;0.85;;;22.00;43.90;;;;;;5090138;28;20050;-64
2022/04/07 03:16:49;;;;;;;1.80;0.13;;;22.10;44.10;;;;;;5088093;28;20051;-64
2022/04/07 03:19:16;;;;;;;0.52;0.08;;;22.00;44.00;;;;;;5092814;28;20054;-63
2022/04/07 03:21:44;;;;;;;1.80;0.10;;;22.00;44.00;;;;;;5095518;28;20044;-64
2022/04/07 03:24:11;;;;;;;0.50;0.10;;;22.00;44.00;;;;;;5089524;28;20040;-64
2022/04/07 03:26:40;;;;;;;0.38;0.30;;;22.00;44.10;;;;;;5089066;28;20085;-64
2022/04/07 03:29:07;;;;;;;0.30;0.00;;;22.10;44.80;;;;;;5093094;28;20544;-63
2022/04/07 03:31:34;;;;;;;0.77;0.05;;;22.00;44.20;;;;;;5095492;28;20094;-63
2022/04/07 03:34:02;;;;;;;0.43;0.10;;;22.00;44.20;;;;;;5089858;28;20040;-63
2022/04/07 03:36:29;;;;;;;2.47;0.28;;;22.00;44.20;;;;;;5092948;28;20056;-63
2022/04/07 03:38:56;;;;;;;0.90;0.10;;;22.00;44.20;;;;;;5090640;28;20040;-64
2022/04/07 03:41:23;;;;;;;1.73;0.10;;;22.00;44.20;;;;;;5101078;28;20032;-63
2022/04/07 03:43:52;;;;;;;2.20;0.10;;;22.00;44.20;;;;;;5088377;28;20078;-63
2022/04/07 03:46:21;;;;;;;2.55;0.10;;;22.00;44.30;;;;;;5097787;28;20071;-63
2022/04/07 03:48:49;;;;;;;1.23;0.15;;;22.00;44.40;;;;;;5099063;28;20035;-63
2022/04/07 03:51:17;;;;;;;4.07;0.30;;;22.00;44.40;;;;;;5097051;27;20054;-63
2022/04/07 03:53:44;;;;;;;8.63;0.17;;;22.00;44.40;;;;;;5099456;27;20027;-63
2022/04/07 03:56:12;;;;;;;0.47;0.15;;;22.00;44.40;;;;;;5098953;28;20044;-63
2022/04/07 03:58:39;;;;;;;0.52;0.20;;;22.00;44.40;;;;;;5112174;27;20096;-63
2022/04/07 04:01:08;;;;;;;1.27;0.10;;;22.00;44.40;;;;;;5096549;28;20056;-63
2022/04/07 04:03:35;;;;;;;0.47;0.10;;;22.00;44.40;;;;;;5084494;28;20046;-63
2022/04/07 04:06:02;;;;;;;0.55;0.10;;;22.00;44.40;;;;;;5093083;28;20052;-64
2022/04/07 04:08:29;;;;;;;1.35;0.08;;;22.00;44.50;;;;;;5090460;28;20048;-65
2022/04/07 04:10:56;;;;;;;0.52;0.00;;;22.00;44.40;;;;;;5101927;28;20051;-65
2022/04/07 04:13:26;;;;;;;2.35;0.13;;;22.00;44.50;;;;;;5098147;28;20580;-65
2022/04/07 04:15:53;;;;;;;3.25;0.85;;;22.00;44.50;;;;;;5092837;28;20539;-65
2022/04/07 04:18:21;;;;;;;2.05;0.10;;;22.00;44.50;;;;;;5095238;28;20031;-64
2022/04/07 04:20:48;;;;;;;2.38;0.20;;;22.00;44.50;;;;;;5092738;28;20526;-64
2022/04/07 04:23:15;;;;;;;1.95;0.45;;;21.90;44.50;;;;;;5093396;28;20585;-63
2022/04/07 04:25:42;;;;;;;0.90;0.10;;;22.00;44.60;;;;;;5095971;28;20051;-65
2022/04/07 04:28:10;;;;;;;2.65;0.10;;;22.00;45.20;;;;;;5102572;28;20411;-64
2022/04/07 04:30:37;;;;;;;1.13;0.10;;;22.00;44.70;;;;;;5099453;28;20055;-63
2022/04/07 04:33:04;;;;;;;0.40;0.17;;;22.00;44.60;;;;;;5092850;28;20122;-64
2022/04/07 04:35:33;;;;;;;0.52;0.15;;;22.00;44.60;;;;;;5089325;28;20566;-64
2022/04/07 04:38:00;;;;;;;2.72;0.10;;;22.00;44.60;;;;;;5102266;28;20036;-64
2022/04/07 04:40:27;;;;;;;5.40;0.43;;;22.00;44.70;;;;;;5102672;28;20047;-64
2022/04/07 04:42:54;;;;;;;0.88;0.10;;;22.00;44.70;;;;;;5102401;28;20067;-63
2022/04/07 04:45:21;;;;;;;0.95;0.10;;;22.00;44.70;;;;;;5100178;28;20092;-63
2022/04/07 04:47:52;;;;;;;3.78;0.20;;;22.00;44.70;;;;;;5103424;28;20036;-63
2022/04/07 04:50:20;;;;;;;0.55;0.00;;;22.00;44.70;;;;;;5102113;28;20046;-64
2022/04/07 04:52:49;;;;;;;2.85;0.13;;;22.00;44.70;;;;;;5102963;28;20036;-64
2022/04/07 04:55:16;;;;;;;1.25;0.10;;;22.00;44.70;;;;;;5104301;28;20670;-63
2022/04/07 04:57:43;;;;;;;3.13;0.13;;;22.00;44.70;;;;;;5091930;28;20062;-65
2022/04/07 05:00:12;;;;;;;1.55;0.10;;;22.00;44.70;;;;;;5095304;28;20039;-65
2022/04/07 05:02:40;;;;;;;1.25;0.10;;;22.00;44.80;;;;;;5103441;28;20043;-64
2022/04/07 05:05:08;;;;;;;0.35;0.10;;;22.00;44.80;;;;;;5102507;28;20062;-64
2022/04/07 05:07:35;;;;;;;0.63;0.10;;;22.00;44.70;;;;;;5101142;28;20411;-63
2022/04/07 05:10:04;;;;;;;3.25;0.10;;;22.00;44.70;;;;;;5099090;28;20040;-63
2022/04/07 05:12:31;;;;;;;1.02;0.10;;;22.00;44.70;;;;;;5097475;28;20048;-64
2022/04/07 05:14:58;;;;;;;0.22;0.22;;;22.00;44.70;;;;;;5091580;28;20118;-64
2022/04/07 05:17:25;;;;;;;0.70;0.05;;;22.00;44.70;;;;;;5098344;28;20060;-64
2022/04/07 05:19:52;;;;;;;2.58;0.20;;;22.00;44.70;;;;;;5099565;28;20400;-64
2022/04/07 05:22:20;;;;;;;0.98;0.00;;;22.00;44.70;;;;;;5095442;28;20043;-64
2022/04/07 05:24:48;;;;;;;2.38;0.10;;;22.00;44.70;;;;;;5091237;28;20051;-63
2022/04/07 05:27:17;;;;;;;0.47;0.10;;;22.00;44.70;;;;;;5100376;28;20036;-64
2022/04/07 05:29:44;;;;;;;0.68;0.17;;;22.00;44.70;;;;;;5098587;28;20675;-63
2022/04/07 05:32:11;;;;;;;1.38;0.10;;;22.00;44.70;;;;;;5089860;28;20040;-63
2022/04/07 05:34:39;;;;;;;0.10;0.10;;;22.00;44.70;;;;;;5091691;28;20105;-63
2022/04/07 05:37:06;;;;;;;2.83;0.10;;;22.00;44.70;;;;;;5098744;28;20506;-62
2022/04/07 05:39:33;;;;;;;0.80;0.10;;;22.00;44.70;;;;;;5102228;28;20146;-63
2022/04/07 05:42:00;;;;;;;1.55;0.10;;;22.00;44.70;;;;;;5099293;28;20419;-63
2022/04/07 05:44:29;;;;;;;1.45;0.10;;;22.00;44.60;;;;;;5100890;28;20055;-63
2022/04/07 05:46:56;;;;;;;5.38;0.00;;;22.00;44.60;;;;;;5091427;28;20039;-63
2022/04/07 05:49:23;;;;;;;1.27;0.00;;;22.00;44.50;;;;;;5097560;28;20051;-64
2022/04/07 05:51:54;;;;;;;0.47;0.10;;;22.10;44.60;;;;;;5098640;28;20031;-63
2022/04/07 05:54:21;;;;;;;1.17;0.10;;;22.00;44.60;;;;;;5084106;28;20157;-63
2022/04/07 05:56:48;;;;;;;1.00;0.03;;;22.00;44.50;;;;;;5097899;28;20128;-64
2022/04/07 05:59:15;;;;;;;0.25;0.10;;;22.10;44.60;;;;;;5092637;28;20044;-62
2022/04/07 06:01:44;;;;;;;0.20;0.10;;;22.10;44.70;;;;;;5099813;27;20066;-64
2022/04/07 06:04:11;;;;;;;1.23;0.25;;;22.10;44.70;;;;;;5096933;28;20058;-63
2022/04/07 06:06:38;;;;;;;1.60;0.08;;;22.10;44.80;;;;;;5090695;28;20059;-64
2022/04/07 06:09:06;;;;;;;1.08;0.10;;;22.10;44.70;;;;;;5092153;28;20063;-63
2022/04/07 06:11:33;;;;;;;2.47;0.17;;;22.10;44.70;;;;;;5078191;28;20056;-66
2022/04/07 06:14:01;;;;;;;0.35;0.13;;;22.10;44.60;;;;;;5099938;28;20039;-63
2022/04/07 06:16:29;;;;;;;3.55;0.35;;;22.10;44.60;;;;;;5097185;28;20827;-64
2022/04/07 06:18:57;;;;;;;1.33;0.47;;;22.10;44.60;;;;;;5092824;28;20048;-63
2022/04/07 06:21:24;;;;;;;2.30;0.35;;;22.10;44.50;;;;;;5094851;28;20092;-64
2022/04/07 06:23:52;;;;;;;1.08;0.38;;;22.10;44.50;;;;;;5097542;28;20066;-66
2022/04/07 06:26:19;;;;;;;0.55;0.13;;;22.10;44.50;;;;;;5097387;28;20032;-63
2022/04/07 06:28:46;;;;;;;1.77;0.20;;;22.20;44.50;;;;;;5092120;28;20130;-62
2022/04/07 06:31:14;;;;;;;0.82;0.20;;;22.20;44.50;;;;;;5103323;28;20031;-63
2022/04/07 06:33:41;;;;;;;2.17;0.10;;;22.10;44.40;;;;;;5099626;28;20043;-63
2022/04/07 06:36:09;;;;;;;1.58;0.10;;;22.20;44.50;;;;;;5097389;28;20039;-66
2022/04/07 06:38:36;;;;;;;1.27;0.05;;;22.20;44.40;;;;;;5069431;28;20048;-63
2022/04/07 06:41:04;;;;;;;0.77;0.10;;;22.20;44.40;;;;;;5096137;28;20032;-63
2022/04/07 06:43:31;;;;;;;0.40;0.10;;;22.20;44.40;;;;;;5104936;28;20051;-66
2022/04/07 06:45:58;;;;;;;2.75;0.10;;;22.20;44.40;;;;;;5093862;28;20050;-65
2022/04/07 06:48:25;;;;;;;0.90;0.08;;;22.20;44.40;;;;;;5097301;28;20060;-63
2022/04/07 06:50:53;;;;;;;1.35;0.22;;;22.20;44.40;;;;;;5091583;28;20039;-62
2022/04/07 06:53:21;;;;;;;2.97;0.20;;;22.20;44.40;;;;;;5097514;28;20040;-65
2022/04/07 06:55:49;;;;;;;0.15;0.00;;;22.20;44.50;;;;;;5095811;28;20048;-63
2022/04/07 06:58:16;;;;;;;2.95;0.10;;;22.20;44.50;;;;;;5100483;28;20070;-64
2022/04/07 07:00:45;;;;;;;3.13;0.10;;;22.30;44.60;;;;;;5100413;28;20036;-64
2022/04/07 07:03:14;;;;;;;2.55;0.20;;;22.30;44.50;;;;;;5100583;28;20104;-62
2022/04/07 07:05:43;;;;;;;0.68;0.10;;;22.30;44.60;;;;;;5081492;28;20072;-59
2022/04/07 07:08:12;;;;;;;1.65;0.10;;;22.30;44.60;;;;;;5084040;28;20040;-52
2022/04/07 07:10:41;;;;;;;3.58;0.43;;;22.30;44.80;;;;;;5092552;28;20160;-54
2022/04/07 07:13:09;;;;;;;1.08;0.28;;;22.40;44.90;;;;;;5098556;28;20102;-54
2022/04/07 07:15:36;;;;;;;1.13;0.32;;;22.40;44.90;;;;;;5089875;28;20067;-54
2022/04/07 07:18:04;;;;;;;1.73;0.20;;;22.40;44.90;;;;;;5091737;28;20044;-55
2022/04/07 07:20:31;;;;;;;1.95;0.10;;;22.40;44.90;;;;;;5095776;28;20104;-57
2022/04/07 07:22:59;;;;;;;0.70;0.30;;;22.50;45.00;;;;;;5096703;28;20134;-59
2022/04/07 07:25:27;;;;;;;0.70;0.10;;;22.50;45.00;;;;;;5095315;28;20500;-60
2022/04/07 07:27:55;;;;;;;5.03;0.10;;;22.50;44.90;;;;;;5097343;28;21033;-60
2022/04/07 07:30:23;;;;;;;1.90;0.20;;;22.50;44.80;;;;;;5099173;28;20067;-60
2022/04/07 07:32:51;;;;;;;3.78;0.55;;;22.50;44.70;;;;;;5093777;28;20056;-60
2022/04/07 07:35:20;;;;;;;0.85;0.28;;;22.50;44.60;;;;;;5090745;28;21192;-60
2022/04/07 07:37:49;;;;;;;0.35;0.10;;;22.50;44.50;;;;;;5097069;28;20539;-60
2022/04/07 07:40:17;;;;;;;0.10;0.00;;;22.50;44.50;;;;;;5107369;28;20463;-60
2022/04/07 07:42:44;;;;;;;2.17;0.10;;;22.50;44.40;;;;;;5098364;28;20040;-61
2022/04/07 07:45:13;;;;;;;2.45;0.10;;;22.50;44.40;;;;;;5095419;28;20629;-60
2022/04/07 07:47:41;;;;;;;0.30;0.00;;;22.50;44.30;;;;;;5099343;27;20096;-60
2022/04/07 07:50:08;;;;;;;3.17;0.20;;;22.60;44.40;;;;;;5090277;28;20046;-60
2022/04/07 07:52:36;;;;;;;0.10;0.10;;;22.60;44.30;;;;;;5093447;28;20561;-57
2022/04/07 07:55:03;;;;;;;1.85;0.00;;;22.60;44.20;;;;;;5102621;28;20071;-60
2022/04/07 07:57:31;;;;;;;0.10;0.00;;;22.60;44.10;;;;;;5094242;28;20047;-60
2022/04/07 07:59:58;;;;;;;0.30;0.00;;;22.70;44.10;;;;;;5091490;28;20123;-59
2022/04/07 08:02:27;;;;;;;2.78;0.10;;;22.70;44.10;;;;;;5091793;28;20119;-60
2022/04/07 08:04:54;;;;;;;0.38;0.00;;;22.70;44.00;;;;;;5099447;28;20051;-60
2022/04/07 08:07:23;;;;;;;0.10;0.00;;;22.70;44.00;;;;;;5095891;28;20120;-58
2022/04/07 08:09:50;;;;;;;0.43;0.10;;;22.80;43.90;;;;;;5103109;28;20513;-62
2022/04/07 08:12:18;;;;;;;0.50;0.00;;;22.80;44.10;;;;;;5103100;28;20046;-53
2022/04/07 08:14:45;;;;;;;0.03;0.00;;;22.80;44.30;;;;;;5103037;28;20112;-56
2022/04/07 08:17:14;;;;;;;0.80;0.10;;;23.00;44.50;;;;;;5101725;28;20035;-58
2022/04/07 08:19:42;;;;;;;0.85;0.00;;;23.10;44.40;;;;;;5101935;28;20680;-55
2022/04/07 08:22:10;;;;;;;0.28;0.20;;;23.20;44.20;;;;;;5106528;28;20067;-56
2022/04/07 08:24:37;;;;;;;1.65;0.05;;;23.30;44.10;;;;;;5103238;28;20048;-55
2022/04/07 08:27:06;;;;;;;0.10;0.00;;;23.50;44.00;;;;;;5100382;28;20027;-55
2022/04/07 08:29:34;;;;;;;1.00;0.65;;;23.60;44.40;;;;;;5102134;28;20124;-55
2022/04/07 08:32:02;;;;;;;1.27;0.20;;;23.70;43.70;;;;;;5098933;28;20054;-58
2022/04/07 08:34:29;;;;;;;0.50;0.00;;;23.80;43.50;;;;;;5105205;28;20057;-63
2022/04/07 08:36:58;;;;;;;0.43;0.10;;;23.90;43.40;;;;;;5102901;28;20040;-66
2022/04/07 08:39:25;;;;;;;0.20;0.00;;;24.00;43.20;;;;;;5101542;28;20063;-68
2022/04/07 08:41:54;;;;;;;1.10;0.00;;;24.10;43.10;;;;;;5102123;28;20054;-56
2022/04/07 08:44:22;;;;;;;0.73;0.43;;;24.20;42.90;;;;;;5103266;27;20117;-58
2022/04/07 08:46:53;;;;;;;0.00;0.00;;;24.20;42.70;;;;;;5101277;28;20123;-60
2022/04/07 08:49:22;;;;;;;0.95;0.00;;;24.30;42.50;;;;;;5105322;28;20086;-60
2022/04/07 08:51:52;;;;;;;0.08;0.00;;;24.40;42.40;;;;;;5100342;28;20132;-58
2022/04/07 08:54:21;;;;;;;0.10;0.10;;;24.50;42.20;;;;;;5102720;28;20066;-58
2022/04/07 08:56:49;;;;;;;4.57;0.08;;;24.50;42.00;;;;;;5100924;28;20264;-61
2022/04/07 08:59:16;;;;;;;0.57;0.00;;;24.60;42.00;;;;;;5100301;28;20040;-64
2022/04/07 09:01:44;;;;;;;3.00;0.10;;;24.60;41.90;;;;;;5103649;28;20035;-56
2022/04/07 09:04:13;;;;;;;0.30;0.05;;;24.70;41.90;;;;;;5103343;28;20585;-58
2022/04/07 09:06:41;;;;;;;2.42;0.00;;;24.70;41.80;;;;;;5101599;28;20055;-59
2022/04/07 09:09:19;;;;;;;0.10;0.00;;;24.80;41.80;;;;;;5098638;28;20051;-57
2022/04/07 09:11:53;;;;;;;0.00;0.00;;;24.80;41.70;;;;;;5098200;28;20039;-57
2022/04/07 09:14:21;;;;;;;1.55;0.00;;;24.80;41.70;;;;;;5100095;28;20506;-59
2022/04/07 09:16:53;;;;;;;2.30;0.00;;;24.90;41.70;;;;;;5103026;28;20042;-57
2022/04/07 09:19:22;;;;;;;0.10;0.10;;;24.90;41.60;;;;;;5104030;27;20040;-67
2022/04/07 09:22:04;;;;;;;1.52;0.00;;;24.90;41.50;;;;;;5082928;28;20119;-61
2022/04/07 09:24:33;;;;;;;0.10;0.10;;;25.00;41.50;;;;;;5100191;28;20048;-58
2022/04/07 09:27:04;;;;;;;3.80;1.38;;;25.00;41.40;;;;;;5103004;28;20123;-64
2022/04/07 09:29:39;;;;;;;4.68;0.10;;;25.10;41.50;;;;;;5098821;28;20039;-61
2022/04/07 09:32:18;;;;;;;3.55;0.00;;;25.10;41.40;;;;;;5084731;28;20413;-61
2022/04/07 09:34:46;;;;;;;1.23;0.05;;;25.20;41.50;;;;;;5104617;28;20763;-56
2022/04/07 09:37:14;;;;;;;2.90;0.10;;;25.20;41.40;;;;;;5102626;28;20042;-62
2022/04/07 09:39:42;;;;;;;1.05;0.00;;;25.30;41.40;;;;;;5104442;27;20806;-62
2022/04/07 09:42:25;;;;;;;3.30;0.00;;;25.30;41.30;;;;;;5098108;28;20043;-64
2022/04/07 09:44:57;;;;;;;2.03;0.00;;;25.30;41.10;;;;;;5100451;28;20063;-61
2022/04/07 09:47:35;;;;;;;2.75;0.10;;;25.30;41.10;;;;;;5102195;28;20131;-61
2022/04/07 09:50:02;;;;;;;5.95;0.88;;;25.40;41.10;;;;;;5080765;28;20408;-59
2022/04/07 09:52:30;;;;;;;3.20;0.13;;;25.30;41.00;;;;;;5087269;28;20040;-64
2022/04/07 09:55:04;;;;;;;7.68;0.03;;;25.40;41.20;;;;;;5103461;28;20036;-70
2022/04/07 09:57:33;;;;;;;1.58;0.10;;;25.40;41.10;;;;;;5100882;28;20807;-64
2022/04/07 10:00:03;;;;;;;4.75;0.00;;;25.50;41.10;;;;;;5101022;28;20032;-65
2022/04/07 10:02:31;;;;;;;5.25;0.10;;;25.50;41.20;;;;;;5100386;28;20045;-60
2022/04/07 10:05:00;;;;;;;0.55;0.40;;;25.60;41.30;;;;;;5099494;28;20032;-64
2022/04/07 10:07:29;;;;;;;0.77;0.00;;;25.60;41.30;;;;;;5102318;28;20039;-62
2022/04/07 10:09:58;;;;;;;0.98;0.20;;;25.60;41.30;;;;;;5100105;28;20032;-64
2022/04/07 10:12:26;;;;;;;2.15;0.00;;;25.60;41.40;;;;;;5099253;28;20478;-58
2022/04/07 10:14:56;;;;;;;0.68;0.30;;;25.60;41.60;;;;;;5100351;28;20043;-59
2022/04/07 10:17:24;;;;;;;3.00;0.00;;;25.60;41.70;;;;;;5082850;28;20116;-57
2022/04/07 10:19:57;;;;;;;1.25;0.20;;;25.60;41.80;;;;;;5099651;28;20036;-60
2022/04/07 10:22:48;;;;;;;4.53;0.30;;;25.60;42.10;;;;;;5101305;28;20057;-60
2022/04/07 10:25:17;;;;;;;2.95;0.20;;;25.60;42.40;;;;;;5095867;28;20044;-61
2022/04/07 10:27:48;;;;;;;0.85;0.00;;;25.60;42.60;;;;;;5097729;28;20494;-62
2022/04/07 10:30:17;;;;;;;2.03;0.10;;;25.60;42.70;;;;;;5089951;28;20479;-59
2022/04/07 10:32:47;;;;;;;0.43;0.00;;;25.50;42.80;;;;;;5090073;28;20062;-56
2022/04/07 10:35:35;;;;;;;5.82;0.20;;;25.60;43.00;;;;;;5090232;28;20051;-53
2022/04/07 10:38:06;;;;;;;9.43;0.75;;;25.60;43.30;;;;;;5083802;28;20055;-54
2022/04/07 10:40:39;;;;;;;8.35;0.10;;;25.50;43.70;;;;;;5093874;28;20044;-55
2022/04/07 10:43:13;;;;;;;5.97;0.95;;;25.60;43.80;;;;;;5097026;28;20040;-56
2022/04/07 10:45:43;;;;;;;23.70;1.50;;;25.60;43.60;;;;;;5095341;28;20043;-56
2022/04/07 10:48:18;;;;;;;14.02;0.35;;;25.50;43.70;;;;;;5099894;28;20039;-55
2022/04/07 10:50:48;;;;;;;6.73;0.70;;;25.50;43.70;;;;;;5100442;28;20036;-56
2022/04/07 10:53:22;;;;;;;12.32;0.35;;;25.40;43.60;;;;;;5095467;28;20463;-57
2022/04/07 10:55:57;;;;;;;6.03;0.45;;;25.40;43.70;;;;;;5093012;28;20072;-53
2022/04/07 10:58:54;;;;;;;11.23;1.70;;;25.30;43.60;;;;;;5096441;28;20039;-56
2022/04/07 11:01:59;;;;;;;11.32;0.60;;;25.30;43.60;;;;;;5034107;28;20137;-57
2022/04/07 11:04:36;;;;;;;7.90;0.55;;;25.20;43.60;;;;;;5032632;28;20045;-54
2022/04/07 11:07:22;;;;;;;9.00;0.38;;;25.10;45.60;;;;;;5032186;28;20068;-61
2022/04/07 11:10:11;;;;;;;19.35;1.02;;;25.10;46.10;;;;;;5033647;28;20053;-60
2022/04/07 11:12:43;;;;;;;15.18;1.70;;;25.00;46.90;;;;;;5017084;28;20049;-64
2022/04/07 11:15:18;;;;;;;9.57;0.35;;;25.00;47.70;;;;;;5038736;28;20037;-62
2022/04/07 11:17:53;;;;;;;10.90;1.92;;;25.00;48.00;;;;;;5027313;28;20055;-62
2022/04/07 11:20:21;;;;;;;16.35;0.73;;;25.00;48.00;;;;;;5013179;28;20045;-62
2022/04/07 11:22:53;;;;;;;11.65;0.95;;;24.90;48.00;;;;;;5027064;28;20049;-62
2022/04/07 11:25:25;;;;;;;11.32;0.95;;;25.00;48.10;;;;;;5033509;28;20510;-61
2022/04/07 11:28:13;;;;;;;10.02;2.33;;;24.90;48.00;;;;;;5028468;28;20060;-62
2022/04/07 11:30:43;;;;;;;6.32;0.50;;;25.00;47.90;;;;;;5031312;28;20136;-61
2022/04/07 11:33:36;;;;;;;12.52;0.47;;;25.00;47.90;;;;;;5019429;28;20037;-62
2022/04/07 11:36:37;;;;;;;3.75;0.30;;;24.90;47.80;;;;;;5032025;28;20159;-62
2022/04/07 11:39:04;;;;;;;5.78;0.30;;;24.90;47.80;;;;;;5074082;28;20512;-62
2022/04/07 11:41:41;;;;;;;1.25;0.20;;;24.90;47.80;;;;;;5072175;28;20055;-62
2022/04/07 11:44:12;;;;;;;10.75;0.38;;;24.90;47.70;;;;;;5071462;28;20090;-63
2022/04/07 11:46:40;;;;;;;7.13;0.30;;;24.90;47.80;;;;;;5068601;28;20044;-62
2022/04/07 11:49:11;;;;;;;1.38;0.20;;;24.90;47.80;;;;;;5074131;28;20051;-62
2022/04/07 11:51:39;;;;;;;2.42;0.10;;;24.80;47.70;;;;;;5074544;28;20044;-63
2022/04/07 11:54:07;;;;;;;4.15;1.55;;;24.80;47.70;;;;;;5073636;28;20476;-62
2022/04/07 11:56:37;;;;;;;2.03;0.20;;;24.80;47.60;;;;;;5073022;28;20043;-62
2022/04/07 11:59:06;;;;;;;8.88;0.10;;;24.80;47.60;;;;;;5070658;28;20560;-62
2022/04/07 12:01:35;;;;;;;5.95;0.55;;;24.80;47.50;;;;;;5077222;28;20488;-62
2022/04/07 12:04:05;;;;;;;7.28;0.20;;;24.80;47.50;;;;;;5070035;28;20090;-62
2022/04/07 12:06:35;;;;;;;3.50;0.40;;;24.80;47.50;;;;;;5089488;28;20798;-61
2022/04/07 12:09:04;;;;;;;2.67;0.32;;;24.80;47.40;;;;;;5096269;28;20063;-62
2022/04/07 12:11:33;;;;;;;1.77;0.10;;;24.80;47.40;;;;;;5095743;28;20063;-62
2022/04/07 12:14:04;;;;;;;3.63;0.10;;;24.80;47.30;;;;;;5090797;28;20231;-62
2022/04/07 12:16:32;;;;;;;6.88;0.10;;;24.80;47.20;;;;;;5099785;28;20044;-62
2022/04/07 12:19:01;;;;;;;0.73;0.10;;;24.80;47.10;;;;;;5093530;28;20130;-62
2022/04/07 12:21:29;;;;;;;0.73;0.10;;;24.80;47.00;;;;;;5096046;28;20475;-62
2022/04/07 12:24:13;;;;;;;4.75;0.20;;;24.80;46.90;;;;;;5095673;28;20043;-59
2022/04/07 12:26:41;;;;;;;9.32;0.40;;;24.80;46.80;;;;;;5094200;28;20032;-62
2022/04/07 12:29:09;;;;;;;2.17;0.10;;;24.80;46.70;;;;;;5089686;28;20040;-62
2022/04/07 12:31:36;;;;;;;0.20;0.20;;;24.70;46.70;;;;;;5097895;28;20420;-62
2022/04/07 12:34:08;;;;;;;4.80;0.10;;;24.70;46.60;;;;;;5097768;28;20051;-62
2022/04/07 12:36:37;;;;;;;1.70;0.10;;;24.80;46.70;;;;;;5093979;28;20040;-62
2022/04/07 12:39:06;;;;;;;1.15;0.25;;;24.80;46.70;;;;;;5094053;28;20424;-62
2022/04/07 12:41:40;;;;;;;1.85;0.10;;;24.80;46.80;;;;;;5102351;28;20047;-62
2022/04/07 12:44:09;;;;;;;2.47;0.10;;;24.80;46.90;;;;;;5106392;28;20036;-63
2022/04/07 12:46:47;;;;;;;0.63;0.10;;;24.80;47.00;;;;;;5094978;28;20044;-62
2022/04/07 12:49:14;;;;;;;1.08;0.10;;;24.90;47.20;;;;;;5097785;28;20122;-62
2022/04/07 12:51:43;;;;;;;4.00;0.10;;;24.80;47.00;;;;;;5099703;28;20516;-62
2022/04/07 12:54:12;;;;;;;1.58;0.10;;;24.90;47.10;;;;;;5093054;28;20139;-62
2022/04/07 12:56:43;;;;;;;1.27;0.65;;;24.90;47.10;;;;;;5095644;28;20078;-62